Terminal Aerodrome Forecast
Issued by NWS Jackson, MS

Home | Current Version | Previous Version | Text Only | Print | Product List | Glossary On
Versions: 1 2 3 4 5 6 7 8 9 10 11 12 13 14 15 16 17 18 19
729
FTUS44 KJAN 261720
TAFGLH
TAF
KGLH 261720Z 2618/2718 18010KT P6SM VCTS SCT035CB BKN250
     FM270500 14006KT P6SM OVC050
     FM270800 13005KT P6SM OVC015
     FM271200 16010KT P6SM OVC020
     FM271600 17012G18KT P6SM OVC015=

USA.gov is the U.S. government's official web portal to all federal, state and local government web resources and services.